sensor_id;sensor_type;location;lat;lon;timestamp;P1;durP1;ratioP1;P2;durP2;ratioP2
46653;SDS011;38960;51.074;17.004;2023-08-17T00:02:13;20.42;;;18.83;;
46653;SDS011;38960;51.074;17.004;2023-08-17T00:04:39;20.60;;;18.88;;
46653;SDS011;38960;51.074;17.004;2023-08-17T00:07:05;19.58;;;18.23;;
46653;SDS011;38960;51.074;17.004;2023-08-17T00:09:31;20.30;;;18.90;;
46653;SDS011;38960;51.074;17.004;2023-08-17T00:11:57;20.23;;;18.83;;
46653;SDS011;38960;51.074;17.004;2023-08-17T00:14:23;20.50;;;18.75;;
46653;SDS011;38960;51.074;17.004;2023-08-17T00:16:49;19.55;;;18.25;;
46653;SDS011;38960;51.074;17.004;2023-08-17T00:19:15;20.80;;;19.40;;
46653;SDS011;38960;51.074;17.004;2023-08-17T00:21:40;20.63;;;19.02;;
46653;SDS011;38960;51.074;17.004;2023-08-17T00:24:06;20.00;;;18.50;;
46653;SDS011;38960;51.074;17.004;2023-08-17T00:26:32;20.92;;;19.27;;
46653;SDS011;38960;51.074;17.004;2023-08-17T00:28:57;20.15;;;18.75;;
46653;SDS011;38960;51.074;17.004;2023-08-17T00:31:23;20.40;;;18.90;;
46653;SDS011;38960;51.074;17.004;2023-08-17T00:33:49;20.20;;;18.70;;
46653;SDS011;38960;51.074;17.004;2023-08-17T00:36:15;20.85;;;19.27;;
46653;SDS011;38960;51.074;17.004;2023-08-17T00:38:40;20.60;;;19.20;;
46653;SDS011;38960;51.074;17.004;2023-08-17T00:41:06;21.25;;;19.25;;
46653;SDS011;38960;51.074;17.004;2023-08-17T00:43:31;21.08;;;19.58;;
46653;SDS011;38960;51.074;17.004;2023-08-17T00:45:57;20.50;;;19.10;;
46653;SDS011;38960;51.074;17.004;2023-08-17T00:48:22;21.38;;;19.90;;
46653;SDS011;38960;51.074;17.004;2023-08-17T00:50:49;20.23;;;18.90;;
46653;SDS011;38960;51.074;17.004;2023-08-17T00:53:15;20.52;;;19.13;;
46653;SDS011;38960;51.074;17.004;2023-08-17T00:55:42;20.15;;;18.67;;
46653;SDS011;38960;51.074;17.004;2023-08-17T00:58:07;20.77;;;18.85;;
46653;SDS011;38960;51.074;17.004;2023-08-17T01:00:33;21.90;;;19.80;;
46653;SDS011;38960;51.074;17.004;2023-08-17T01:02:59;21.80;;;19.80;;
46653;SDS011;38960;51.074;17.004;2023-08-17T01:05:24;24.67;;;21.60;;
46653;SDS011;38960;51.074;17.004;2023-08-17T01:07:51;21.52;;;19.80;;
46653;SDS011;38960;51.074;17.004;2023-08-17T01:10:16;21.95;;;20.33;;
46653;SDS011;38960;51.074;17.004;2023-08-17T01:12:44;23.50;;;21.33;;
46653;SDS011;38960;51.074;17.004;2023-08-17T01:20:47;21.63;;;19.92;;
46653;SDS011;38960;51.074;17.004;2023-08-17T01:23:13;21.52;;;20.02;;
46653;SDS011;38960;51.074;17.004;2023-08-17T01:25:39;20.70;;;19.23;;
46653;SDS011;38960;51.074;17.004;2023-08-17T01:28:05;20.73;;;19.27;;
46653;SDS011;38960;51.074;17.004;2023-08-17T01:30:37;20.73;;;19.23;;
46653;SDS011;38960;51.074;17.004;2023-08-17T01:33:11;20.43;;;19.00;;
46653;SDS011;38960;51.074;17.004;2023-08-17T01:35:52;21.52;;;19.95;;
46653;SDS011;38960;51.074;17.004;2023-08-17T01:38:21;20.40;;;19.00;;
46653;SDS011;38960;51.074;17.004;2023-08-17T01:40:48;20.55;;;19.02;;
46653;SDS011;38960;51.074;17.004;2023-08-17T01:43:15;19.60;;;18.20;;
46653;SDS011;38960;51.074;17.004;2023-08-17T01:45:43;20.58;;;19.05;;
46653;SDS011;38960;51.074;17.004;2023-08-17T01:48:08;20.13;;;18.77;;
46653;SDS011;38960;51.074;17.004;2023-08-17T01:50:35;20.23;;;18.73;;
46653;SDS011;38960;51.074;17.004;2023-08-17T01:53:00;21.52;;;20.02;;
46653;SDS011;38960;51.074;17.004;2023-08-17T01:55:26;20.52;;;19.23;;
46653;SDS011;38960;51.074;17.004;2023-08-17T01:57:52;19.80;;;18.48;;
46653;SDS011;38960;51.074;17.004;2023-08-17T02:00:17;20.67;;;18.60;;
46653;SDS011;38960;51.074;17.004;2023-08-17T02:02:43;20.17;;;18.77;;
46653;SDS011;38960;51.074;17.004;2023-08-17T02:05:10;20.67;;;19.15;;
46653;SDS011;38960;51.074;17.004;2023-08-17T02:07:36;20.80;;;19.25;;
46653;SDS011;38960;51.074;17.004;2023-08-17T02:10:01;22.75;;;18.73;;
46653;SDS011;38960;51.074;17.004;2023-08-17T02:12:28;21.40;;;19.80;;
46653;SDS011;38960;51.074;17.004;2023-08-17T02:14:53;20.50;;;19.00;;
46653;SDS011;38960;51.074;17.004;2023-08-17T02:17:19;20.38;;;19.05;;
46653;SDS011;38960;51.074;17.004;2023-08-17T02:19:46;19.77;;;18.45;;
46653;SDS011;38960;51.074;17.004;2023-08-17T02:22:13;21.02;;;19.58;;
46653;SDS011;38960;51.074;17.004;2023-08-17T02:24:39;21.13;;;19.42;;
46653;SDS011;38960;51.074;17.004;2023-08-17T02:27:06;20.40;;;19.00;;
46653;SDS011;38960;51.074;17.004;2023-08-17T02:29:32;20.75;;;19.02;;
46653;SDS011;38960;51.074;17.004;2023-08-17T02:31:58;21.38;;;19.77;;
46653;SDS011;38960;51.074;17.004;2023-08-17T02:34:25;21.20;;;19.77;;
46653;SDS011;38960;51.074;17.004;2023-08-17T02:36:51;20.63;;;19.13;;
46653;SDS011;38960;51.074;17.004;2023-08-17T02:39:16;21.50;;;19.80;;
46653;SDS011;38960;51.074;17.004;2023-08-17T02:41:42;20.88;;;19.27;;
46653;SDS011;38960;51.074;17.004;2023-08-17T02:44:10;21.63;;;20.00;;
46653;SDS011;38960;51.074;17.004;2023-08-17T02:46:35;19.70;;;18.30;;
46653;SDS011;38960;51.074;17.004;2023-08-17T02:49:01;21.17;;;19.42;;
46653;SDS011;38960;51.074;17.004;2023-08-17T02:51:27;21.58;;;20.13;;
46653;SDS011;38960;51.074;17.004;2023-08-17T02:53:52;20.80;;;19.30;;
46653;SDS011;38960;51.074;17.004;2023-08-17T02:56:18;20.75;;;19.27;;
46653;SDS011;38960;51.074;17.004;2023-08-17T02:58:44;21.10;;;19.52;;
46653;SDS011;38960;51.074;17.004;2023-08-17T03:01:09;21.23;;;19.73;;
46653;SDS011;38960;51.074;17.004;2023-08-17T03:03:35;21.13;;;19.40;;
46653;SDS011;38960;51.074;17.004;2023-08-17T03:06:04;21.15;;;19.75;;
46653;SDS011;38960;51.074;17.004;2023-08-17T03:08:30;21.75;;;20.02;;
46653;SDS011;38960;51.074;17.004;2023-08-17T03:10:56;21.15;;;19.75;;
46653;SDS011;38960;51.074;17.004;2023-08-17T03:13:21;21.75;;;20.20;;
46653;SDS011;38960;51.074;17.004;2023-08-17T03:15:47;22.08;;;20.17;;
46653;SDS011;38960;51.074;17.004;2023-08-17T03:18:14;22.02;;;20.17;;
46653;SDS011;38960;51.074;17.004;2023-08-17T03:20:39;21.67;;;19.98;;
46653;SDS011;38960;51.074;17.004;2023-08-17T03:23:05;21.80;;;20.05;;
46653;SDS011;38960;51.074;17.004;2023-08-17T03:25:33;21.90;;;20.30;;
46653;SDS011;38960;51.074;17.004;2023-08-17T03:27:59;21.33;;;19.73;;
46653;SDS011;38960;51.074;17.004;2023-08-17T03:30:25;21.90;;;20.30;;
46653;SDS011;38960;51.074;17.004;2023-08-17T03:32:51;21.83;;;20.13;;
46653;SDS011;38960;51.074;17.004;2023-08-17T03:35:17;21.90;;;20.20;;
46653;SDS011;38960;51.074;17.004;2023-08-17T03:37:42;21.50;;;19.77;;
46653;SDS011;38960;51.074;17.004;2023-08-17T03:40:09;21.65;;;20.10;;
46653;SDS011;38960;51.074;17.004;2023-08-17T03:42:35;21.90;;;20.10;;
46653;SDS011;38960;51.074;17.004;2023-08-17T03:45:01;21.20;;;19.50;;
46653;SDS011;38960;51.074;17.004;2023-08-17T03:47:27;21.65;;;20.05;;
46653;SDS011;38960;51.074;17.004;2023-08-17T03:49:53;21.80;;;20.30;;
46653;SDS011;38960;51.074;17.004;2023-08-17T03:52:19;22.17;;;20.48;;
46653;SDS011;38960;51.074;17.004;2023-08-17T03:54:46;22.80;;;21.20;;
46653;SDS011;38960;51.074;17.004;2023-08-17T03:57:12;20.77;;;19.27;;
46653;SDS011;38960;51.074;17.004;2023-08-17T03:59:37;21.13;;;19.52;;
46653;SDS011;38960;51.074;17.004;2023-08-17T04:02:03;21.50;;;20.05;;
46653;SDS011;38960;51.074;17.004;2023-08-17T04:04:29;21.80;;;20.10;;
46653;SDS011;38960;51.074;17.004;2023-08-17T04:06:55;21.98;;;20.38;;
46653;SDS011;38960;51.074;17.004;2023-08-17T04:09:22;22.33;;;20.25;;
46653;SDS011;38960;51.074;17.004;2023-08-17T04:11:47;23.33;;;21.38;;
46653;SDS011;38960;51.074;17.004;2023-08-17T04:14:13;20.88;;;19.48;;
46653;SDS011;38960;51.074;17.004;2023-08-17T04:16:39;21.95;;;20.27;;
46653;SDS011;38960;51.074;17.004;2023-08-17T04:19:05;21.42;;;19.92;;
46653;SDS011;38960;51.074;17.004;2023-08-17T04:21:30;22.52;;;20.73;;
46653;SDS011;38960;51.074;17.004;2023-08-17T04:23:56;21.60;;;20.10;;
46653;SDS011;38960;51.074;17.004;2023-08-17T04:26:22;22.40;;;20.58;;
46653;SDS011;38960;51.074;17.004;2023-08-17T04:28:49;21.15;;;19.73;;
46653;SDS011;38960;51.074;17.004;2023-08-17T04:31:15;21.85;;;20.15;;
46653;SDS011;38960;51.074;17.004;2023-08-17T04:33:44;22.38;;;20.40;;
46653;SDS011;38960;51.074;17.004;2023-08-17T04:36:10;22.48;;;20.63;;
46653;SDS011;38960;51.074;17.004;2023-08-17T04:38:36;23.55;;;21.52;;
46653;SDS011;38960;51.074;17.004;2023-08-17T04:41:02;22.88;;;21.10;;
46653;SDS011;38960;51.074;17.004;2023-08-17T04:43:28;22.67;;;20.88;;
46653;SDS011;38960;51.074;17.004;2023-08-17T04:45:54;22.13;;;20.65;;
46653;SDS011;38960;51.074;17.004;2023-08-17T04:48:21;22.13;;;20.42;;
46653;SDS011;38960;51.074;17.004;2023-08-17T04:50:48;22.75;;;20.80;;
46653;SDS011;38960;51.074;17.004;2023-08-17T04:53:14;22.27;;;20.77;;
46653;SDS011;38960;51.074;17.004;2023-08-17T04:55:39;22.17;;;20.58;;
46653;SDS011;38960;51.074;17.004;2023-08-17T04:58:05;21.67;;;20.17;;
46653;SDS011;38960;51.074;17.004;2023-08-17T05:00:32;22.10;;;20.55;;
46653;SDS011;38960;51.074;17.004;2023-08-17T05:02:58;23.00;;;21.25;;
46653;SDS011;38960;51.074;17.004;2023-08-17T05:05:29;22.60;;;20.77;;
46653;SDS011;38960;51.074;17.004;2023-08-17T05:07:55;21.40;;;19.92;;
46653;SDS011;38960;51.074;17.004;2023-08-17T05:10:21;20.98;;;19.40;;
46653;SDS011;38960;51.074;17.004;2023-08-17T05:12:46;21.80;;;20.30;;
46653;SDS011;38960;51.074;17.004;2023-08-17T05:15:12;21.17;;;19.77;;
46653;SDS011;38960;51.074;17.004;2023-08-17T05:17:39;21.35;;;19.95;;
46653;SDS011;38960;51.074;17.004;2023-08-17T05:20:05;22.13;;;20.52;;
46653;SDS011;38960;51.074;17.004;2023-08-17T05:22:31;21.33;;;19.67;;
46653;SDS011;38960;51.074;17.004;2023-08-17T05:24:56;21.50;;;20.00;;
46653;SDS011;38960;51.074;17.004;2023-08-17T05:27:22;21.52;;;20.00;;
46653;SDS011;38960;51.074;17.004;2023-08-17T05:29:48;22.92;;;21.10;;
46653;SDS011;38960;51.074;17.004;2023-08-17T05:32:13;22.15;;;20.52;;
46653;SDS011;38960;51.074;17.004;2023-08-17T05:34:41;22.02;;;20.30;;
46653;SDS011;38960;51.074;17.004;2023-08-17T05:37:06;23.65;;;21.67;;
46653;SDS011;38960;51.074;17.004;2023-08-17T05:39:33;21.95;;;20.48;;
46653;SDS011;38960;51.074;17.004;2023-08-17T05:41:58;21.90;;;20.30;;
46653;SDS011;38960;51.074;17.004;2023-08-17T05:44:24;22.30;;;20.42;;
46653;SDS011;38960;51.074;17.004;2023-08-17T05:46:50;23.02;;;21.33;;
46653;SDS011;38960;51.074;17.004;2023-08-17T05:49:15;23.70;;;21.50;;
46653;SDS011;38960;51.074;17.004;2023-08-17T05:51:41;22.08;;;20.27;;
46653;SDS011;38960;51.074;17.004;2023-08-17T05:54:06;23.10;;;21.00;;
46653;SDS011;38960;51.074;17.004;2023-08-17T05:56:32;21.80;;;20.30;;
46653;SDS011;38960;51.074;17.004;2023-08-17T05:58:58;22.20;;;20.50;;
46653;SDS011;38960;51.074;17.004;2023-08-17T06:01:23;22.08;;;20.35;;
46653;SDS011;38960;51.074;17.004;2023-08-17T06:03:49;22.50;;;20.58;;
46653;SDS011;38960;51.074;17.004;2023-08-17T06:06:14;23.90;;;21.52;;
46653;SDS011;38960;51.074;17.004;2023-08-17T06:08:40;22.70;;;20.98;;
46653;SDS011;38960;51.074;17.004;2023-08-17T06:11:05;23.03;;;21.17;;
46653;SDS011;38960;51.074;17.004;2023-08-17T06:13:31;23.42;;;21.63;;
46653;SDS011;38960;51.074;17.004;2023-08-17T06:15:57;24.02;;;22.00;;
46653;SDS011;38960;51.074;17.004;2023-08-17T06:18:22;23.40;;;21.52;;
46653;SDS011;38960;51.074;17.004;2023-08-17T06:20:48;23.70;;;21.50;;
46653;SDS011;38960;51.074;17.004;2023-08-17T06:23:17;24.10;;;22.15;;
46653;SDS011;38960;51.074;17.004;2023-08-17T06:25:42;24.20;;;21.90;;
46653;SDS011;38960;51.074;17.004;2023-08-17T06:28:08;23.98;;;22.10;;
46653;SDS011;38960;51.074;17.004;2023-08-17T06:30:34;25.33;;;22.88;;
46653;SDS011;38960;51.074;17.004;2023-08-17T06:32:59;23.85;;;21.73;;
46653;SDS011;38960;51.074;17.004;2023-08-17T06:35:25;23.88;;;21.85;;
46653;SDS011;38960;51.074;17.004;2023-08-17T06:37:50;23.67;;;21.30;;
46653;SDS011;38960;51.074;17.004;2023-08-17T06:40:19;23.80;;;22.10;;
46653;SDS011;38960;51.074;17.004;2023-08-17T06:42:44;23.13;;;21.08;;
46653;SDS011;38960;51.074;17.004;2023-08-17T06:45:10;23.88;;;22.00;;
46653;SDS011;38960;51.074;17.004;2023-08-17T06:47:35;24.13;;;22.10;;
46653;SDS011;38960;51.074;17.004;2023-08-17T06:50:01;23.98;;;21.63;;
46653;SDS011;38960;51.074;17.004;2023-08-17T06:52:27;22.05;;;20.35;;
46653;SDS011;38960;51.074;17.004;2023-08-17T06:54:52;23.80;;;21.63;;
46653;SDS011;38960;51.074;17.004;2023-08-17T06:57:18;23.75;;;21.83;;
46653;SDS011;38960;51.074;17.004;2023-08-17T06:59:44;23.27;;;21.40;;
46653;SDS011;38960;51.074;17.004;2023-08-17T07:02:11;23.52;;;21.63;;
46653;SDS011;38960;51.074;17.004;2023-08-17T07:04:36;22.30;;;20.70;;
46653;SDS011;38960;51.074;17.004;2023-08-17T07:07:02;23.02;;;21.25;;
46653;SDS011;38960;51.074;17.004;2023-08-17T07:09:28;22.70;;;21.02;;
46653;SDS011;38960;51.074;17.004;2023-08-17T07:11:54;23.40;;;21.65;;
46653;SDS011;38960;51.074;17.004;2023-08-17T07:14:20;24.88;;;22.33;;
46653;SDS011;38960;51.074;17.004;2023-08-17T07:16:46;23.17;;;21.33;;
46653;SDS011;38960;51.074;17.004;2023-08-17T07:19:11;24.13;;;22.15;;
46653;SDS011;38960;51.074;17.004;2023-08-17T07:21:38;22.95;;;21.02;;
46653;SDS011;38960;51.074;17.004;2023-08-17T07:24:11;23.92;;;21.60;;
46653;SDS011;38960;51.074;17.004;2023-08-17T07:26:38;23.85;;;21.45;;
46653;SDS011;38960;51.074;17.004;2023-08-17T07:29:04;23.45;;;21.55;;
46653;SDS011;38960;51.074;17.004;2023-08-17T07:31:29;23.42;;;21.40;;
46653;SDS011;38960;51.074;17.004;2023-08-17T07:33:55;23.38;;;21.25;;
46653;SDS011;38960;51.074;17.004;2023-08-17T07:36:21;23.48;;;21.55;;
46653;SDS011;38960;51.074;17.004;2023-08-17T07:38:47;23.45;;;21.48;;
46653;SDS011;38960;51.074;17.004;2023-08-17T07:41:12;21.77;;;20.02;;
46653;SDS011;38960;51.074;17.004;2023-08-17T07:43:38;21.83;;;20.27;;
46653;SDS011;38960;51.074;17.004;2023-08-17T07:46:03;23.63;;;21.48;;
46653;SDS011;38960;51.074;17.004;2023-08-17T07:48:29;21.45;;;19.40;;
46653;SDS011;38960;51.074;17.004;2023-08-17T07:50:58;22.40;;;20.70;;
46653;SDS011;38960;51.074;17.004;2023-08-17T07:53:24;21.90;;;20.27;;
46653;SDS011;38960;51.074;17.004;2023-08-17T07:55:50;21.35;;;19.60;;
46653;SDS011;38960;51.074;17.004;2023-08-17T07:58:16;21.33;;;19.92;;
46653;SDS011;38960;51.074;17.004;2023-08-17T08:00:41;21.73;;;19.83;;
46653;SDS011;38960;51.074;17.004;2023-08-17T08:03:07;21.65;;;19.77;;
46653;SDS011;38960;51.074;17.004;2023-08-17T08:05:33;21.92;;;20.20;;
46653;SDS011;38960;51.074;17.004;2023-08-17T08:07:58;21.63;;;20.00;;
46653;SDS011;38960;51.074;17.004;2023-08-17T08:10:24;21.95;;;20.35;;
46653;SDS011;38960;51.074;17.004;2023-08-17T08:12:50;21.45;;;19.95;;
46653;SDS011;38960;51.074;17.004;2023-08-17T08:15:15;22.02;;;20.20;;
46653;SDS011;38960;51.074;17.004;2023-08-17T08:17:41;21.73;;;20.20;;
46653;SDS011;38960;51.074;17.004;2023-08-17T08:20:07;20.40;;;18.92;;
46653;SDS011;38960;51.074;17.004;2023-08-17T08:22:32;20.90;;;19.25;;
46653;SDS011;38960;51.074;17.004;2023-08-17T08:24:58;20.52;;;19.13;;
46653;SDS011;38960;51.074;17.004;2023-08-17T08:27:24;21.17;;;19.58;;
46653;SDS011;38960;51.074;17.004;2023-08-17T08:29:50;20.98;;;19.48;;
46653;SDS011;38960;51.074;17.004;2023-08-17T08:32:15;20.85;;;19.27;;
46653;SDS011;38960;51.074;17.004;2023-08-17T08:34:41;21.15;;;19.58;;
46653;SDS011;38960;51.074;17.004;2023-08-17T08:37:06;22.08;;;20.63;;
46653;SDS011;38960;51.074;17.004;2023-08-17T08:39:32;20.95;;;19.48;;
46653;SDS011;38960;51.074;17.004;2023-08-17T08:41:58;21.35;;;19.90;;
46653;SDS011;38960;51.074;17.004;2023-08-17T08:44:23;21.08;;;19.50;;
46653;SDS011;38960;51.074;17.004;2023-08-17T08:46:50;20.65;;;19.15;;
46653;SDS011;38960;51.074;17.004;2023-08-17T08:49:19;21.08;;;19.58;;
46653;SDS011;38960;51.074;17.004;2023-08-17T08:51:48;21.30;;;19.80;;
46653;SDS011;38960;51.074;17.004;2023-08-17T08:54:18;21.42;;;20.00;;
46653;SDS011;38960;51.074;17.004;2023-08-17T08:56:47;22.02;;;20.10;;
46653;SDS011;38960;51.074;17.004;2023-08-17T08:59:17;22.27;;;20.58;;
46653;SDS011;38960;51.074;17.004;2023-08-17T09:01:42;23.10;;;21.50;;
46653;SDS011;38960;51.074;17.004;2023-08-17T09:04:08;21.55;;;20.05;;
46653;SDS011;38960;51.074;17.004;2023-08-17T09:06:34;22.45;;;20.75;;
46653;SDS011;38960;51.074;17.004;2023-08-17T09:09:00;21.77;;;20.08;;
46653;SDS011;38960;51.074;17.004;2023-08-17T09:11:28;21.70;;;19.98;;
46653;SDS011;38960;51.074;17.004;2023-08-17T09:13:53;21.75;;;20.25;;
46653;SDS011;38960;51.074;17.004;2023-08-17T09:16:22;22.55;;;20.42;;
46653;SDS011;38960;51.074;17.004;2023-08-17T09:18:47;21.30;;;19.90;;
46653;SDS011;38960;51.074;17.004;2023-08-17T09:21:19;6.53;;;4.43;;
46653;SDS011;38960;51.074;17.004;2023-08-17T09:23:54;3.40;;;2.28;;
46653;SDS011;38960;51.074;17.004;2023-08-17T09:26:21;7.13;;;2.42;;
46653;SDS011;38960;51.074;17.004;2023-08-17T09:28:49;5.45;;;2.40;;
46653;SDS011;38960;51.074;17.004;2023-08-17T09:31:20;4.00;;;2.13;;
46653;SDS011;38960;51.074;17.004;2023-08-17T09:33:48;5.20;;;2.20;;
46653;SDS011;38960;51.074;17.004;2023-08-17T09:36:15;3.75;;;2.40;;
46653;SDS011;38960;51.074;17.004;2023-08-17T09:38:40;21.35;;;19.90;;
46653;SDS011;38960;51.074;17.004;2023-08-17T09:41:06;22.08;;;20.48;;
46653;SDS011;38960;51.074;17.004;2023-08-17T09:43:32;22.00;;;20.50;;
46653;SDS011;38960;51.074;17.004;2023-08-17T09:45:59;21.88;;;20.38;;
46653;SDS011;38960;51.074;17.004;2023-08-17T09:48:27;22.70;;;20.95;;
46653;SDS011;38960;51.074;17.004;2023-08-17T09:50:53;22.88;;;21.20;;
46653;SDS011;38960;51.074;17.004;2023-08-17T09:53:21;23.38;;;21.23;;
46653;SDS011;38960;51.074;17.004;2023-08-17T09:55:47;21.33;;;19.92;;
46653;SDS011;38960;51.074;17.004;2023-08-17T09:58:13;21.92;;;20.23;;
46653;SDS011;38960;51.074;17.004;2023-08-17T10:00:46;22.50;;;20.70;;
46653;SDS011;38960;51.074;17.004;2023-08-17T10:03:14;21.45;;;19.80;;
46653;SDS011;38960;51.074;17.004;2023-08-17T10:05:41;20.75;;;19.35;;
46653;SDS011;38960;51.074;17.004;2023-08-17T10:08:10;21.02;;;19.52;;
46653;SDS011;38960;51.074;17.004;2023-08-17T10:10:44;20.88;;;19.35;;
46653;SDS011;38960;51.074;17.004;2023-08-17T10:13:11;20.95;;;19.50;;
46653;SDS011;38960;51.074;17.004;2023-08-17T10:15:57;21.00;;;19.60;;
46653;SDS011;38960;51.074;17.004;2023-08-17T10:21:23;22.35;;;20.67;;
46653;SDS011;38960;51.074;17.004;2023-08-17T10:23:55;21.75;;;20.23;;
46653;SDS011;38960;51.074;17.004;2023-08-17T10:26:21;21.45;;;19.95;;
46653;SDS011;38960;51.074;17.004;2023-08-17T10:28:47;21.40;;;19.70;;
46653;SDS011;38960;51.074;17.004;2023-08-17T10:31:13;21.17;;;19.73;;
46653;SDS011;38960;51.074;17.004;2023-08-17T10:33:39;21.58;;;20.08;;
46653;SDS011;38960;51.074;17.004;2023-08-17T10:36:07;22.38;;;20.33;;
46653;SDS011;38960;51.074;17.004;2023-08-17T10:38:33;21.75;;;19.80;;
46653;SDS011;38960;51.074;17.004;2023-08-17T10:41:11;21.90;;;20.23;;
46653;SDS011;38960;51.074;17.004;2023-08-17T10:43:54;21.58;;;20.02;;
46653;SDS011;38960;51.074;17.004;2023-08-17T10:46:20;21.63;;;20.25;;
46653;SDS011;38960;51.074;17.004;2023-08-17T10:48:46;20.48;;;19.08;;
46653;SDS011;38960;51.074;17.004;2023-08-17T10:51:11;22.25;;;20.02;;
46653;SDS011;38960;51.074;17.004;2023-08-17T10:53:38;20.90;;;19.50;;
46653;SDS011;38960;51.074;17.004;2023-08-17T10:56:10;21.73;;;20.30;;
46653;SDS011;38960;51.074;17.004;2023-08-17T10:58:37;21.65;;;19.98;;
46653;SDS011;38960;51.074;17.004;2023-08-17T11:01:02;21.27;;;19.58;;
46653;SDS011;38960;51.074;17.004;2023-08-17T11:03:28;21.30;;;19.90;;
46653;SDS011;38960;51.074;17.004;2023-08-17T11:05:54;21.35;;;19.65;;
46653;SDS011;38960;51.074;17.004;2023-08-17T11:13:41;20.90;;;19.38;;
46653;SDS011;38960;51.074;17.004;2023-08-17T11:16:09;21.35;;;19.95;;
46653;SDS011;38960;51.074;17.004;2023-08-17T11:18:36;20.80;;;19.17;;
46653;SDS011;38960;51.074;17.004;2023-08-17T11:21:02;20.70;;;19.30;;
46653;SDS011;38960;51.074;17.004;2023-08-17T11:23:29;20.90;;;19.40;;
46653;SDS011;38960;51.074;17.004;2023-08-17T11:25:55;21.33;;;19.83;;
46653;SDS011;38960;51.074;17.004;2023-08-17T11:28:21;21.50;;;19.80;;
46653;SDS011;38960;51.074;17.004;2023-08-17T11:30:56;22.05;;;20.48;;
46653;SDS011;38960;51.074;17.004;2023-08-17T11:33:28;21.10;;;19.67;;
46653;SDS011;38960;51.074;17.004;2023-08-17T11:35:55;21.13;;;19.65;;
46653;SDS011;38960;51.074;17.004;2023-08-17T11:38:21;21.05;;;19.45;;
46653;SDS011;38960;51.074;17.004;2023-08-17T11:40:46;20.83;;;19.52;;
46653;SDS011;38960;51.074;17.004;2023-08-17T11:43:13;21.65;;;20.25;;
46653;SDS011;38960;51.074;17.004;2023-08-17T11:45:39;21.45;;;20.05;;
46653;SDS011;38960;51.074;17.004;2023-08-17T11:48:04;21.92;;;20.33;;
46653;SDS011;38960;51.074;17.004;2023-08-17T11:50:30;22.33;;;20.73;;
46653;SDS011;38960;51.074;17.004;2023-08-17T11:52:58;21.13;;;19.73;;
46653;SDS011;38960;51.074;17.004;2023-08-17T11:55:25;21.60;;;20.20;;
46653;SDS011;38960;51.074;17.004;2023-08-17T11:57:51;21.15;;;19.75;;
46653;SDS011;38960;51.074;17.004;2023-08-17T12:00:18;23.10;;;21.23;;
46653;SDS011;38960;51.074;17.004;2023-08-17T12:02:52;21.00;;;19.55;;
46653;SDS011;38960;51.074;17.004;2023-08-17T12:05:21;20.58;;;19.15;;
46653;SDS011;38960;51.074;17.004;2023-08-17T12:07:52;22.23;;;20.63;;
46653;SDS011;38960;51.074;17.004;2023-08-17T12:10:18;21.75;;;20.00;;
46653;SDS011;38960;51.074;17.004;2023-08-17T12:12:46;22.05;;;20.23;;
46653;SDS011;38960;51.074;17.004;2023-08-17T12:15:12;21.15;;;19.63;;
46653;SDS011;38960;51.074;17.004;2023-08-17T12:17:48;21.58;;;20.10;;
46653;SDS011;38960;51.074;17.004;2023-08-17T12:20:18;21.38;;;19.77;;
46653;SDS011;38960;51.074;17.004;2023-08-17T12:22:44;22.35;;;20.50;;
46653;SDS011;38960;51.074;17.004;2023-08-17T12:25:11;21.80;;;20.08;;
46653;SDS011;38960;51.074;17.004;2023-08-17T12:27:36;21.85;;;20.35;;
46653;SDS011;38960;51.074;17.004;2023-08-17T12:30:02;22.73;;;20.95;;
46653;SDS011;38960;51.074;17.004;2023-08-17T12:32:28;22.40;;;20.52;;
46653;SDS011;38960;51.074;17.004;2023-08-17T12:34:54;22.13;;;20.52;;
46653;SDS011;38960;51.074;17.004;2023-08-17T12:37:19;22.05;;;20.48;;
46653;SDS011;38960;51.074;17.004;2023-08-17T12:39:48;22.17;;;20.42;;
46653;SDS011;38960;51.074;17.004;2023-08-17T12:42:14;21.83;;;20.42;;
46653;SDS011;38960;51.074;17.004;2023-08-17T12:44:43;21.83;;;20.42;;
46653;SDS011;38960;51.074;17.004;2023-08-17T12:47:09;20.40;;;19.10;;
46653;SDS011;38960;51.074;17.004;2023-08-17T12:49:35;22.05;;;20.45;;
46653;SDS011;38960;51.074;17.004;2023-08-17T12:52:01;22.10;;;20.55;;
46653;SDS011;38960;51.074;17.004;2023-08-17T12:54:27;21.73;;;20.23;;
46653;SDS011;38960;51.074;17.004;2023-08-17T12:56:52;21.35;;;19.95;;
46653;SDS011;38960;51.074;17.004;2023-08-17T12:59:18;21.80;;;20.08;;
46653;SDS011;38960;51.074;17.004;2023-08-17T13:01:43;22.10;;;20.30;;
46653;SDS011;38960;51.074;17.004;2023-08-17T13:04:09;21.55;;;20.05;;
46653;SDS011;38960;51.074;17.004;2023-08-17T13:06:35;21.55;;;19.80;;
46653;SDS011;38960;51.074;17.004;2023-08-17T13:09:00;20.98;;;19.52;;
46653;SDS011;38960;51.074;17.004;2023-08-17T13:11:27;21.50;;;19.98;;
46653;SDS011;38960;51.074;17.004;2023-08-17T13:13:52;21.70;;;20.08;;
46653;SDS011;38960;51.074;17.004;2023-08-17T13:16:18;20.80;;;19.40;;
46653;SDS011;38960;51.074;17.004;2023-08-17T13:18:44;22.02;;;20.33;;
46653;SDS011;38960;51.074;17.004;2023-08-17T13:21:09;21.73;;;20.08;;
46653;SDS011;38960;51.074;17.004;2023-08-17T13:23:35;20.77;;;19.25;;
46653;SDS011;38960;51.074;17.004;2023-08-17T13:26:00;21.10;;;19.65;;
46653;SDS011;38960;51.074;17.004;2023-08-17T13:28:26;21.50;;;19.73;;
46653;SDS011;38960;51.074;17.004;2023-08-17T13:30:52;22.73;;;21.02;;
46653;SDS011;38960;51.074;17.004;2023-08-17T13:33:17;22.15;;;20.30;;
46653;SDS011;38960;51.074;17.004;2023-08-17T13:35:43;21.60;;;19.92;;
46653;SDS011;38960;51.074;17.004;2023-08-17T13:38:09;22.25;;;20.60;;
46653;SDS011;38960;51.074;17.004;2023-08-17T13:40:34;21.98;;;20.40;;
46653;SDS011;38960;51.074;17.004;2023-08-17T13:43:01;22.25;;;20.30;;
46653;SDS011;38960;51.074;17.004;2023-08-17T13:45:28;20.92;;;19.25;;
46653;SDS011;38960;51.074;17.004;2023-08-17T13:47:54;22.00;;;20.40;;
46653;SDS011;38960;51.074;17.004;2023-08-17T13:50:19;22.23;;;20.35;;
46653;SDS011;38960;51.074;17.004;2023-08-17T13:52:45;21.85;;;20.17;;
46653;SDS011;38960;51.074;17.004;2023-08-17T13:55:12;23.23;;;21.55;;
46653;SDS011;38960;51.074;17.004;2023-08-17T13:57:37;22.00;;;20.15;;
46653;SDS011;38960;51.074;17.004;2023-08-17T14:00:03;22.00;;;20.10;;
46653;SDS011;38960;51.074;17.004;2023-08-17T14:02:30;22.20;;;20.67;;
46653;SDS011;38960;51.074;17.004;2023-08-17T14:04:56;22.15;;;20.42;;
46653;SDS011;38960;51.074;17.004;2023-08-17T14:07:22;21.40;;;19.85;;
46653;SDS011;38960;51.074;17.004;2023-08-17T14:09:48;22.13;;;20.58;;
46653;SDS011;38960;51.074;17.004;2023-08-17T14:12:13;21.00;;;19.60;;
46653;SDS011;38960;51.074;17.004;2023-08-17T14:14:39;20.95;;;19.52;;
46653;SDS011;38960;51.074;17.004;2023-08-17T14:17:04;21.67;;;19.95;;
46653;SDS011;38960;51.074;17.004;2023-08-17T14:19:30;22.33;;;20.45;;